createdAt,value
2023-03-12T00:02:35.674Z,49.25
2023-03-12T00:05:57.688Z,49.28
2023-03-12T00:09:20.933Z,49.33
2023-03-12T00:12:42.588Z,49.22
2023-03-12T00:16:13.131Z,49.12
2023-03-12T00:19:34.816Z,49.09
2023-03-12T00:22:56.516Z,49.07
2023-03-12T00:26:19.145Z,49.08
2023-03-12T00:29:40.875Z,49.15
2023-03-12T00:33:02.585Z,49.04
2023-03-12T00:36:27.026Z,49.02
2023-03-12T00:39:48.921Z,49.09
2023-03-12T00:43:10.745Z,49.07
2023-03-12T00:46:32.629Z,49.09
2023-03-12T00:49:54.428Z,49.08
2023-03-12T00:53:16.153Z,49.01
2023-03-12T00:56:37.837Z,49.06
2023-03-12T00:59:59.650Z,49.06
2023-03-12T01:03:21.363Z,49.06
2023-03-12T01:06:43.576Z,49.06
2023-03-12T01:10:06.844Z,49.08
2023-03-12T01:13:28.997Z,49.33
2023-03-12T01:16:52.458Z,49.04
2023-03-12T01:20:15.255Z,49.15
2023-03-12T01:23:38.030Z,49.03
2023-03-12T01:27:00.265Z,49.12
2023-03-12T01:30:21.947Z,49.05
2023-03-12T01:33:43.756Z,48.97
2023-03-12T01:37:06.966Z,49.20
2023-03-12T01:40:29.372Z,48.93
2023-03-12T01:43:52.351Z,48.86
2023-03-12T01:47:14.472Z,49.09
2023-03-12T01:50:36.667Z,48.97
2023-03-12T01:54:01.165Z,49.08
2023-03-12T01:57:38.548Z,49.04
2023-03-12T02:01:02.082Z,49.02
2023-03-12T02:04:26.086Z,48.98
2023-03-12T02:07:48.093Z,48.86
2023-03-12T02:11:09.976Z,49.15
2023-03-12T02:14:32.485Z,48.89
2023-03-12T02:17:54.562Z,48.76
2023-03-12T02:21:26.401Z,48.74
2023-03-12T02:24:56.989Z,48.75
2023-03-12T02:28:23.632Z,48.72
2023-03-12T02:31:51.244Z,48.75
2023-03-12T02:35:14.759Z,48.70
2023-03-12T02:38:56.760Z,48.69
2023-03-12T02:42:18.871Z,48.66
2023-03-12T02:45:40.568Z,48.54
2023-03-12T02:49:02.871Z,48.62
2023-03-12T02:52:24.718Z,48.60
2023-03-12T02:55:46.450Z,48.56
2023-03-12T02:59:08.896Z,48.55
2023-03-12T03:02:33.664Z,48.54
2023-03-12T03:05:55.536Z,48.51
2023-03-12T03:09:18.429Z,48.47
2023-03-12T03:12:42.497Z,48.46
2023-03-12T03:16:04.792Z,48.54
2023-03-12T03:19:26.772Z,48.51
2023-03-12T03:22:48.483Z,48.43
2023-03-12T03:26:10.617Z,48.52
2023-03-12T03:29:32.412Z,48.53
2023-03-12T03:32:54.612Z,48.41
2023-03-12T03:36:17.213Z,48.47
2023-03-12T03:39:48.447Z,48.39
2023-03-12T03:43:10.209Z,48.45
2023-03-12T03:46:32.071Z,48.44
2023-03-12T03:49:57.030Z,48.35
2023-03-12T03:53:20.099Z,48.44
2023-03-12T03:56:42.254Z,48.39
2023-03-12T04:00:09.576Z,48.31
2023-03-12T04:03:35.476Z,48.46
2023-03-12T04:06:58.055Z,48.33
2023-03-12T04:10:21.487Z,48.40
2023-03-12T04:13:44.003Z,48.44
2023-03-12T04:17:06.109Z,48.52
2023-03-12T04:20:27.845Z,48.42
2023-03-12T04:23:49.742Z,48.33
2023-03-12T04:27:11.549Z,48.41
2023-03-12T04:30:33.676Z,48.47
2023-03-12T04:33:55.541Z,48.31
2023-03-12T04:37:18.208Z,48.37
2023-03-12T04:40:39.970Z,48.34
2023-03-12T04:44:02.446Z,48.39
2023-03-12T04:47:24.691Z,48.48
2023-03-12T04:50:46.488Z,48.25
2023-03-12T04:54:08.445Z,48.40
2023-03-12T04:57:31.251Z,48.51
2023-03-12T05:00:53.402Z,48.31
2023-03-12T05:04:15.180Z,48.34
2023-03-12T05:07:37.595Z,48.41
2023-03-12T05:10:59.881Z,48.34
2023-03-12T05:14:21.606Z,48.37
2023-03-12T05:17:44.472Z,48.22
2023-03-12T05:21:09.451Z,48.33
2023-03-12T05:24:31.312Z,48.32
2023-03-12T05:27:53.189Z,48.39
2023-03-12T05:31:15.621Z,48.39
2023-03-12T05:34:37.893Z,48.39
2023-03-12T05:37:59.573Z,48.45
2023-03-12T05:41:23.045Z,48.34
2023-03-12T05:44:45.289Z,48.28
2023-03-12T05:48:08.759Z,48.42
2023-03-12T05:51:30.568Z,48.30
2023-03-12T05:54:53.413Z,48.32
2023-03-12T05:58:15.780Z,48.40
2023-03-12T06:01:38.898Z,48.29
2023-03-12T06:05:03.772Z,48.28
2023-03-12T06:08:25.662Z,48.26
2023-03-12T06:11:49.579Z,48.27
2023-03-12T06:15:11.756Z,48.20
2023-03-12T06:18:35.236Z,48.20
2023-03-12T06:21:57.874Z,48.19
2023-03-12T06:25:21.496Z,48.25
2023-03-12T06:28:43.396Z,48.19
2023-03-12T06:32:05.350Z,48.12
2023-03-12T06:35:27.074Z,47.93
2023-03-12T06:38:48.826Z,47.72
2023-03-12T06:42:14.604Z,47.76
2023-03-12T06:45:36.310Z,47.60
2023-03-12T06:48:58.222Z,47.51
2023-03-12T06:52:19.972Z,47.49
2023-03-12T06:55:44.026Z,47.60
2023-03-12T06:59:05.791Z,47.44
2023-03-12T07:02:27.518Z,47.35
2023-03-12T07:05:50.556Z,47.44
2023-03-12T07:09:12.312Z,47.36
2023-03-12T07:12:34.027Z,47.36
2023-03-12T07:15:56.351Z,47.40
2023-03-12T07:19:19.665Z,47.16
2023-03-12T07:22:41.376Z,47.05
2023-03-12T07:26:07.983Z,46.97
2023-03-12T07:29:32.343Z,46.95
2023-03-12T07:32:54.143Z,46.81
2023-03-12T07:36:16.138Z,46.64
2023-03-12T07:39:38.285Z,46.48
2023-03-12T07:43:00.078Z,46.36
2023-03-12T07:46:22.895Z,45.86
2023-03-12T07:49:45.680Z,44.49
2023-03-12T07:53:07.746Z,43.36
2023-03-12T07:56:30.025Z,43.23
2023-03-12T07:59:52.467Z,41.61
2023-03-12T08:03:14.582Z,40.93
2023-03-12T08:06:38.514Z,40.21
2023-03-12T08:10:00.988Z,39.61
2023-03-12T08:13:24.506Z,39.17
2023-03-12T08:16:46.743Z,39.21
2023-03-12T08:20:12.327Z,38.26
2023-03-12T08:23:34.073Z,37.67
2023-03-12T08:26:56.175Z,37.83
2023-03-12T08:30:20.300Z,37.70
2023-03-12T08:33:43.625Z,37.13
2023-03-12T08:37:06.044Z,37.16
2023-03-12T08:40:28.372Z,37.36
2023-03-12T08:43:50.190Z,37.10
2023-03-12T08:47:11.903Z,37.04
2023-03-12T08:50:33.918Z,37.15
2023-03-12T08:53:55.822Z,37.45
2023-03-12T08:57:17.906Z,37.46
2023-03-12T09:00:39.870Z,36.48
2023-03-12T09:04:02.725Z,35.99
2023-03-12T09:07:24.513Z,35.02
2023-03-12T09:10:49.581Z,34.19
2023-03-12T09:17:54.111Z,32.62
2023-03-12T09:21:16.000Z,31.70
2023-03-12T09:24:37.961Z,31.53
2023-03-12T09:27:59.688Z,31.77
2023-03-12T09:31:21.726Z,31.66
2023-03-12T09:34:43.503Z,31.57
2023-03-12T09:41:44.288Z,31.26
2023-03-12T09:45:08.125Z,31.10
2023-03-12T09:52:28.265Z,30.60
2023-03-12T09:55:51.432Z,30.77
2023-03-12T09:59:13.263Z,31.11
2023-03-12T10:02:53.832Z,31.59
2023-03-12T10:06:21.783Z,32.18
2023-03-12T10:10:01.254Z,32.86
2023-03-12T10:13:38.415Z,33.54
2023-03-12T10:17:41.383Z,34.17
2023-03-12T10:21:03.294Z,34.95
2023-03-12T10:25:09.611Z,35.34
2023-03-12T10:28:46.347Z,35.84
2023-03-12T10:32:10.747Z,36.15
2023-03-12T10:35:32.604Z,36.57
2023-03-12T10:38:54.460Z,36.70
2023-03-12T10:42:27.750Z,36.80
2023-03-12T10:46:02.786Z,36.98
2023-03-12T10:49:27.504Z,37.12
2023-03-12T10:52:52.186Z,37.44
2023-03-12T10:56:16.115Z,37.60
2023-03-12T10:59:43.233Z,37.86
2023-03-12T11:03:07.176Z,37.91
2023-03-12T11:06:30.606Z,38.01
2023-03-12T11:10:17.296Z,38.22
2023-03-12T11:13:41.530Z,37.58
2023-03-12T11:17:20.742Z,37.27
2023-03-12T11:20:42.642Z,37.18
2023-03-12T11:24:08.469Z,37.10
2023-03-12T11:27:46.416Z,36.96
2023-03-12T11:31:27.827Z,36.46
2023-03-12T11:34:50.326Z,36.38
2023-03-12T11:38:31.674Z,36.32
2023-03-12T11:42:08.698Z,35.91
2023-03-12T11:45:45.034Z,35.48
2023-03-12T11:49:18.838Z,35.62
2023-03-12T11:52:59.090Z,35.68
2023-03-12T11:56:30.641Z,35.68
2023-03-12T12:00:17.542Z,35.76
2023-03-12T12:03:51.976Z,35.71
2023-03-12T12:07:29.054Z,35.80
2023-03-12T12:11:02.750Z,35.83
2023-03-12T12:14:53.546Z,35.90
2023-03-12T12:18:29.787Z,36.06
2023-03-12T12:22:06.916Z,36.21
2023-03-12T12:26:05.795Z,36.27
2023-03-12T12:29:36.963Z,36.28
2023-03-12T12:33:35.617Z,36.50
2023-03-12T12:37:12.129Z,36.72
2023-03-12T12:41:09.541Z,36.48
2023-03-12T12:44:38.968Z,36.46
2023-03-12T12:48:04.628Z,36.38
2023-03-12T12:51:40.727Z,36.33
2023-03-12T12:55:30.666Z,36.38
2023-03-12T12:58:58.460Z,35.97
2023-03-12T13:02:23.213Z,35.06
2023-03-12T13:05:50.323Z,33.84
2023-03-12T13:09:16.315Z,32.80
2023-03-12T13:12:55.611Z,32.11
2023-03-12T13:16:36.456Z,31.59
2023-03-12T13:20:13.569Z,31.20
2023-03-12T13:24:22.581Z,32.30
2023-03-12T13:27:48.361Z,32.88
2023-03-12T13:31:29.096Z,33.86
2023-03-12T13:34:50.932Z,33.68
2023-03-12T13:38:22.358Z,33.31
2023-03-12T13:41:52.271Z,32.57
2023-03-12T13:45:26.638Z,31.94
2023-03-12T13:48:49.648Z,31.41
2023-03-12T13:52:14.366Z,31.14
2023-03-12T13:55:46.035Z,30.31
2023-03-12T13:59:14.228Z,29.70
2023-03-12T14:02:42.364Z,28.93
2023-03-12T14:06:13.671Z,28.67
2023-03-12T14:10:03.153Z,28.73
2023-03-12T14:14:04.685Z,28.58
2023-03-12T14:17:30.654Z,28.39
2023-03-12T14:20:58.629Z,28.25
2023-03-12T14:24:20.322Z,28.07
2023-03-12T14:27:45.873Z,28.06
2023-03-12T14:31:15.016Z,27.83
2023-03-12T14:34:46.689Z,27.88
2023-03-12T14:38:35.917Z,27.85
2023-03-12T14:42:02.051Z,28.01
2023-03-12T14:45:23.982Z,28.47
2023-03-12T14:48:49.825Z,28.62
2023-03-12T14:52:13.790Z,29.04
2023-03-12T14:55:36.155Z,29.29
2023-03-12T14:58:59.955Z,29.43
2023-03-12T15:02:22.141Z,29.58
2023-03-12T15:05:48.662Z,29.89
2023-03-12T15:09:28.856Z,30.34
2023-03-12T15:12:52.703Z,30.57
2023-03-12T15:16:14.536Z,30.88
2023-03-12T15:19:42.433Z,31.05
2023-03-12T15:23:04.885Z,31.39
2023-03-12T15:26:33.205Z,32.00
2023-03-12T15:29:59.178Z,32.32
2023-03-12T15:33:20.964Z,32.74
2023-03-12T15:36:49.713Z,33.04
2023-03-12T15:40:25.573Z,33.33
2023-03-12T15:43:52.298Z,33.69
2023-03-12T15:47:19.351Z,33.94
2023-03-12T15:50:45.296Z,34.51
2023-03-12T15:54:25.869Z,35.25
2023-03-12T15:57:55.668Z,36.03
2023-03-12T16:01:19.090Z,36.35
2023-03-12T16:04:40.826Z,37.26
2023-03-12T16:08:18.660Z,37.92
2023-03-12T16:11:40.436Z,40.08
2023-03-12T16:15:02.340Z,40.25
2023-03-12T16:18:27.151Z,40.55
2023-03-12T16:21:50.274Z,40.46
2023-03-12T16:25:13.274Z,40.40
2023-03-12T16:28:36.095Z,40.34
2023-03-12T16:31:57.917Z,40.14
2023-03-12T16:35:20.458Z,40.07
2023-03-12T16:38:43.802Z,40.05
2023-03-12T16:42:21.298Z,39.87
2023-03-12T16:45:44.787Z,39.88
2023-03-12T16:49:14.521Z,39.81
2023-03-12T16:52:36.439Z,39.61
2023-03-12T16:56:00.881Z,39.68
2023-03-12T16:59:27.363Z,39.56
2023-03-12T17:02:49.885Z,39.54
2023-03-12T17:06:24.059Z,39.71
2023-03-12T17:09:45.813Z,39.73
2023-03-12T17:13:10.386Z,39.65
2023-03-12T17:16:32.414Z,39.73
2023-03-12T17:19:54.752Z,39.64
2023-03-12T17:23:16.642Z,39.72
2023-03-12T17:26:38.588Z,39.76
2023-03-12T17:30:00.575Z,39.66
2023-03-12T17:33:22.451Z,39.88
2023-03-12T17:36:44.444Z,39.89
2023-03-12T17:40:10.982Z,39.71
2023-03-12T17:43:35.036Z,39.77
2023-03-12T17:47:01.538Z,39.78
2023-03-12T17:50:23.586Z,39.84
2023-03-12T17:53:45.547Z,39.96
2023-03-12T17:57:07.755Z,40.08
2023-03-12T18:00:30.239Z,39.91
2023-03-12T18:03:51.902Z,39.89
2023-03-12T18:07:14.272Z,39.93
2023-03-12T18:10:39.098Z,39.71
2023-03-12T18:14:01.421Z,40.00
2023-03-12T18:17:23.131Z,39.87
2023-03-12T18:20:44.858Z,40.08
2023-03-12T18:24:14.043Z,40.11
2023-03-12T18:27:36.643Z,39.92
2023-03-12T18:30:58.433Z,40.02
2023-03-12T18:34:21.066Z,40.03
2023-03-12T18:37:44.252Z,40.16
2023-03-12T18:41:10.632Z,39.95
2023-03-12T18:44:32.865Z,40.20
2023-03-12T18:47:54.564Z,40.10
2023-03-12T18:51:16.332Z,40.05
2023-03-12T18:54:39.299Z,40.17
2023-03-12T18:58:00.970Z,40.09
2023-03-12T19:01:23.018Z,40.33
2023-03-12T19:04:45.595Z,40.37
2023-03-12T19:08:07.592Z,40.20
2023-03-12T19:11:29.323Z,40.27
2023-03-12T19:14:51.023Z,40.31
2023-03-12T19:18:12.798Z,40.42
2023-03-12T19:21:34.445Z,40.47
2023-03-12T19:24:56.319Z,40.43
2023-03-12T19:28:18.291Z,40.42
2023-03-12T19:31:40.210Z,40.52
2023-03-12T19:35:02.064Z,40.42
2023-03-12T19:38:23.871Z,40.53
2023-03-12T19:41:45.912Z,40.50
2023-03-12T19:45:08.152Z,40.60
2023-03-12T19:48:33.206Z,40.52
2023-03-12T19:51:54.952Z,40.63
2023-03-12T19:55:16.841Z,40.64
2023-03-12T19:58:38.759Z,40.66
2023-03-12T20:02:01.846Z,40.61
2023-03-12T20:05:26.396Z,40.64
2023-03-12T20:08:49.428Z,40.46
2023-03-12T20:12:11.687Z,40.56
2023-03-12T20:15:34.828Z,40.69
2023-03-12T20:18:56.513Z,40.69
2023-03-12T20:22:18.368Z,40.72
2023-03-12T20:25:41.097Z,40.78
2023-03-12T20:29:04.875Z,40.67
2023-03-12T20:32:26.872Z,40.55
2023-03-12T20:35:50.544Z,40.93
2023-03-12T20:39:13.158Z,40.79
2023-03-12T20:42:35.680Z,40.86
2023-03-12T20:45:57.657Z,40.93
2023-03-12T20:49:19.422Z,40.95
2023-03-12T20:52:41.187Z,40.88
2023-03-12T20:56:04.339Z,40.93
2023-03-12T20:59:27.760Z,41.02
2023-03-12T21:02:49.582Z,40.99
2023-03-12T21:06:11.375Z,40.81
2023-03-12T21:09:34.656Z,40.84
2023-03-12T21:12:56.509Z,40.91
2023-03-12T21:16:18.350Z,41.03
2023-03-12T21:19:44.060Z,41.01
2023-03-12T21:23:07.160Z,40.93
2023-03-12T21:26:31.365Z,41.04
2023-03-12T21:29:53.823Z,41.04
2023-03-12T21:33:15.516Z,41.05
2023-03-12T21:36:37.438Z,40.92
2023-03-12T21:40:01.341Z,41.95
2023-03-12T21:43:25.263Z,42.08
2023-03-12T21:46:47.001Z,42.39
2023-03-12T21:50:10.114Z,42.54
2023-03-12T21:53:34.872Z,42.35
2023-03-12T21:56:56.734Z,42.27
2023-03-12T22:00:18.815Z,42.27
2023-03-12T22:03:42.609Z,42.18
2023-03-12T22:07:04.310Z,42.16
2023-03-12T22:10:26.402Z,42.10
2023-03-12T22:13:48.625Z,42.04
2023-03-12T22:17:10.558Z,42.14
2023-03-12T22:20:37.101Z,41.98
2023-03-12T22:24:01.177Z,42.13
2023-03-12T22:27:22.891Z,41.89
2023-03-12T22:30:44.727Z,41.80
2023-03-12T22:34:06.421Z,41.90
2023-03-12T22:37:28.691Z,41.89
2023-03-12T22:40:50.790Z,41.79
2023-03-12T22:44:12.575Z,41.75
2023-03-12T22:47:34.405Z,41.76
2023-03-12T22:50:56.549Z,41.76
2023-03-12T22:54:18.307Z,41.72
2023-03-12T22:57:40.131Z,41.66
2023-03-12T23:01:05.821Z,41.60
2023-03-12T23:04:27.626Z,41.65
2023-03-12T23:07:49.651Z,41.63
2023-03-12T23:11:11.848Z,41.62
2023-03-12T23:14:34.045Z,41.79
2023-03-12T23:17:55.783Z,41.64
2023-03-12T23:21:22.878Z,41.64
2023-03-12T23:24:44.574Z,41.53
2023-03-12T23:28:06.281Z,41.79
2023-03-12T23:31:29.499Z,41.55
2023-03-12T23:34:51.360Z,41.76
2023-03-12T23:38:13.741Z,41.65
2023-03-12T23:41:35.462Z,41.61
2023-03-12T23:44:57.107Z,41.71
2023-03-12T23:48:19.068Z,41.72
2023-03-12T23:51:40.996Z,41.65
2023-03-12T23:55:02.682Z,41.78
2023-03-12T23:58:26.030Z,41.82
